Main page
METAR-TAF:

METAR-TAF

Airports :

Kulob Airport

Kulob, Tajikistan

latitude: 37-59-18N, longitude: 069-48-18E, elevation: 699 m

Current weather observation

The report was made 16 minutes ago, at 21:00 UTC
Wind 4 kt from variable directions
Temperature 4°C
Humidity 75%
Pressure 1017 hPa
Visibility 10 km or more

METAR: UTDK 202100Z VRB02MPS 9999 NSC 04/00 Q1017 R01/09//70 RMK QFE705/0941

Time: 02:16 (21:16 UTC)

Forecast

The report was made 3 hours and 16 minutes ago, at 18:00 UTC
Forecast valid from 20 at 19 UTC to 21 at 04 UTC
Wind 4 kt from variable directions
Visibility: 6000 m
Few clouds at a height of 6600 ft
Scattered clouds at a height of 13000 ft
Temporary
from 20 at 19 UTC to 21 at 04 UTC
Wind 10 kt from the North/Northeast

TAF: UTDK 201800Z 2019/2104 VRB02MPS 6000 FEW066 SCT130 TEMPO 2019/2104 03005MPS

Weather observations and forecasts of more than 4000 airports (METAR and TAF reports).

The available stations are represented by yellow and red dots on the map.

Hover mouse over dot to see the name of the station.

Then click to see weather observations and forecasts.

To change the map : click on the green buttons with a black cross to zoom in, on the green button with a dash to zoom out, or on the green arrows for adjacent maps.


METAR-TAF: